Trimble, Colorado
Current Conditions -  °F | °C
As of 11:53 PM on Thursday 27 Nov 2014 (Local Time) from KDRO Reporting Station
Clear Clear  
Wind Chill: 28°   Ceiling: Unl
Heat Index: 28°   Visibility: 10mi
Dew Point: 20°   Wind: 3mph
Humidity: 72%   Direction: 30°NNE
Pressure: 30.35"   Gusts: NA
Location:  37.39°N, 107.85°W
Report Text: KDRO 280653Z AUTO 03003KT 10SM CLR M02/M07 A3035 RMK AO2 SLP277 T10221067 401281078
Loading
Personal Weather Stations






























Interactive Weather Map New forecast layout! Learn more

10-Day Weather Forecast

Advertisements
Track Severe Weather on mobile